Time,TemperatureF,DewpointF,PressureIn,WindDirection,WindDirectionDegrees,WindSpeedMPH,WindSpeedGustMPH,Humidity,HourlyPrecipIn,Conditions,Clouds,dailyrainin,SoftwareType,DateUTC
2013-06-15 00:02:00,83.0,-99.9,29.91,SE,132,16.0,18.0,-999,-99.99,,,-99.99,,2013-06-15 05:02:00,
2013-06-15 00:12:00,83.0,-99.9,29.91,SE,139,17.0,19.0,-999,-99.99,,,-99.99,,2013-06-15 05:12:00,
2013-06-15 00:22:00,83.0,-99.9,29.91,SE,137,17.0,20.0,-999,-99.99,,,-99.99,,2013-06-15 05:22:00,
2013-06-15 00:34:00,83.0,-99.9,29.91,SE,136,17.0,20.0,-999,-99.99,,,-99.99,,2013-06-15 05:34:00,
2013-06-15 00:43:00,83.0,-99.9,29.91,SE,135,17.0,19.0,-999,-99.99,,,-99.99,,2013-06-15 05:43:00,
2013-06-15 00:52:00,83.0,-99.9,29.91,SE,132,17.0,20.0,-999,-99.99,,,-99.99,,2013-06-15 05:52:00,
2013-06-15 01:02:00,83.0,-99.9,29.91,SE,142,17.0,19.0,-999,-99.99,,,-99.99,,2013-06-15 06:02:00,
2013-06-15 01:12:00,83.0,-99.9,29.91,SE,142,17.0,19.0,-999,-99.99,,,-99.99,,2013-06-15 06:12:00,
2013-06-15 01:24:00,83.0,-99.9,29.91,SSE,147,17.0,19.0,-999,-99.99,,,-99.99,,2013-06-15 06:24:00,
2013-06-15 01:33:00,83.0,-99.9,29.91,SSE,147,16.0,19.0,-999,-99.99,,,-99.99,,2013-06-15 06:33:00,
2013-06-15 01:43:00,83.0,-99.9,29.90,SE,145,16.0,20.0,-999,-99.99,,,-99.99,,2013-06-15 06:43:00,
2013-06-15 01:53:00,83.0,-99.9,29.90,SE,146,17.0,19.0,-999,-99.99,,,-99.99,,2013-06-15 06:53:00,
2013-06-15 02:02:00,83.0,-99.9,29.90,SE,142,17.0,19.0,-999,-99.99,,,-99.99,,2013-06-15 07:02:00,
2013-06-15 02:11:00,83.0,-99.9,29.89,SE,141,18.0,19.0,-999,-99.99,,,-99.99,,2013-06-15 07:11:00,
2013-06-15 02:23:00,83.0,-99.9,29.89,SE,138,17.0,20.0,-999,-99.99,,,-99.99,,2013-06-15 07:23:00,
2013-06-15 02:33:00,83.0,-99.9,29.89,SE,138,17.0,19.0,-999,-99.99,,,-99.99,,2013-06-15 07:33:00,
2013-06-15 02:43:00,83.0,-99.9,29.89,SE,142,18.0,20.0,-999,-99.99,,,-99.99,,2013-06-15 07:43:00,
2013-06-15 02:54:00,83.0,-99.9,29.88,SE,139,19.0,20.0,-999,-99.99,,,-99.99,,2013-06-15 07:54:00,
2013-06-15 03:03:00,83.0,-99.9,29.88,SE,144,18.0,20.0,-999,-99.99,,,-99.99,,2013-06-15 08:03:00,
2013-06-15 03:12:00,82.0,-99.9,29.88,SE,140,19.0,20.0,-999,-99.99,,,-99.99,,2013-06-15 08:12:00,
2013-06-15 03:22:00,82.0,-99.9,29.87,SE,138,18.0,21.0,-999,-99.99,,,-99.99,,2013-06-15 08:22:00,
2013-06-15 03:34:00,83.0,-99.9,29.87,SE,143,17.0,20.0,-999,-99.99,,,-99.99,,2013-06-15 08:34:00,
2013-06-15 03:43:00,83.0,-99.9,29.86,SE,139,17.0,20.0,-999,-99.99,,,-99.99,,2013-06-15 08:43:00,
2013-06-15 03:53:00,82.0,-99.9,29.86,SSE,150,17.0,20.0,-999,-99.99,,,-99.99,,2013-06-15 08:53:00,
2013-06-15 04:02:00,82.0,-99.9,29.86,SE,143,17.0,19.0,-999,-99.99,,,-99.99,,2013-06-15 09:02:00,
2013-06-15 04:12:00,82.0,-99.9,29.86,SSE,150,16.0,20.0,-999,-99.99,,,-99.99,,2013-06-15 09:12:00,
2013-06-15 04:22:00,82.0,-99.9,29.87,SSE,156,17.0,19.0,-999,-99.99,,,-99.99,,2013-06-15 09:22:00,
2013-06-15 04:33:00,82.0,-99.9,29.87,SSE,150,15.0,19.0,-999,-99.99,,,-99.99,,2013-06-15 09:33:00,
2013-06-15 04:43:00,82.0,-99.9,29.87,SSE,156,16.0,19.0,-999,-99.99,,,-99.99,,2013-06-15 09:43:00,
2013-06-15 04:52:00,82.0,-99.9,29.88,SSE,155,16.0,18.0,-999,-99.99,,,-99.99,,2013-06-15 09:52:00,
2013-06-15 05:02:00,82.0,-99.9,29.88,SSE,151,17.0,20.0,-999,-99.99,,,-99.99,,2013-06-15 10:02:00,
2013-06-15 05:12:00,82.0,-99.9,29.88,SE,144,17.0,19.0,-999,-99.99,,,-99.99,,2013-06-15 10:12:00,
2013-06-15 05:23:00,82.0,-99.9,29.88,SE,144,17.0,19.0,-999,-99.99,,,-99.99,,2013-06-15 10:23:00,
2013-06-15 05:34:00,82.0,-99.9,29.87,SSE,147,18.0,20.0,-999,-99.99,,,-99.99,,2013-06-15 10:34:00,
2013-06-15 05:44:00,82.0,-99.9,29.87,SSE,152,18.0,21.0,-999,-99.99,,,-99.99,,2013-06-15 10:44:00,
2013-06-15 05:53:00,82.0,-99.9,29.86,SSE,150,21.0,23.0,-999,-99.99,,,-99.99,,2013-06-15 10:53:00,
2013-06-15 06:02:00,82.0,-99.9,29.87,SE,145,17.0,20.0,-999,-99.99,,,-99.99,,2013-06-15 11:02:00,
2013-06-15 06:12:00,82.0,-99.9,29.88,SSE,152,17.0,19.0,-999,-99.99,,,-99.99,,2013-06-15 11:12:00,
2013-06-15 06:22:00,82.0,-99.9,29.88,SSE,149,18.0,21.0,-999,-99.99,,,-99.99,,2013-06-15 11:22:00,
2013-06-15 06:33:00,82.0,-99.9,29.88,SSE,151,18.0,21.0,-999,-99.99,,,-99.99,,2013-06-15 11:33:00,
2013-06-15 06:43:00,82.0,-99.9,29.88,SSE,148,18.0,20.0,-999,-99.99,,,-99.99,,2013-06-15 11:43:00,
2013-06-15 06:53:00,82.0,-99.9,29.89,SSE,147,18.0,20.0,-999,-99.99,,,-99.99,,2013-06-15 11:53:00,
2013-06-15 07:02:00,82.0,-99.9,29.89,SSE,148,20.0,21.0,-999,-99.99,,,-99.99,,2013-06-15 12:02:00,
2013-06-15 07:12:00,82.0,-99.9,29.89,SSE,152,16.0,20.0,-999,-99.99,,,-99.99,,2013-06-15 12:12:00,
2013-06-15 07:22:00,82.0,-99.9,29.90,SSE,151,17.0,21.0,-999,-99.99,,,-99.99,,2013-06-15 12:22:00,
2013-06-15 07:33:00,82.0,-99.9,29.90,SE,145,19.0,21.0,-999,-99.99,,,-99.99,,2013-06-15 12:33:00,
2013-06-15 07:44:00,82.0,-99.9,29.90,SE,142,18.0,20.0,-999,-99.99,,,-99.99,,2013-06-15 12:44:00,
2013-06-15 07:53:00,82.0,-99.9,29.91,SSE,151,17.0,20.0,-999,-99.99,,,-99.99,,2013-06-15 12:53:00,
2013-06-15 08:02:00,82.0,-99.9,29.91,SSE,150,17.0,19.0,-999,-99.99,,,-99.99,,2013-06-15 13:02:00,
2013-06-15 08:11:00,82.0,-99.9,29.91,SSE,162,18.0,19.0,-999,-99.99,,,-99.99,,2013-06-15 13:11:00,
2013-06-15 08:22:00,82.0,-99.9,29.92,SSE,153,16.0,18.0,-999,-99.99,,,-99.99,,2013-06-15 13:22:00,
2013-06-15 08:33:00,82.0,-99.9,29.92,SSE,162,18.0,21.0,-999,-99.99,,,-99.99,,2013-06-15 13:33:00,
2013-06-15 08:44:00,82.0,-99.9,29.92,SSE,162,19.0,21.0,-999,-99.99,,,-99.99,,2013-06-15 13:44:00,
2013-06-15 08:53:00,82.0,-99.9,29.93,SSE,165,19.0,21.0,-999,-99.99,,,-99.99,,2013-06-15 13:53:00,
2013-06-15 09:02:00,82.0,-99.9,29.93,SSE,167,17.0,20.0,-999,-99.99,,,-99.99,,2013-06-15 14:02:00,
2013-06-15 09:12:00,82.0,-99.9,29.93,SSE,162,18.0,20.0,-999,-99.99,,,-99.99,,2013-06-15 14:12:00,
2013-06-15 09:23:00,82.0,-99.9,29.94,SSE,167,16.0,19.0,-999,-99.99,,,-99.99,,2013-06-15 14:23:00,
2013-06-15 09:34:00,82.0,-99.9,29.94,SSE,162,17.0,19.0,-999,-99.99,,,-99.99,,2013-06-15 14:34:00,
2013-06-15 09:43:00,82.0,-99.9,29.94,SSE,167,17.0,19.0,-999,-99.99,,,-99.99,,2013-06-15 14:43:00,
2013-06-15 09:54:00,82.0,-99.9,29.94,SSE,160,15.0,17.0,-999,-99.99,,,-99.99,,2013-06-15 14:54:00,
2013-06-15 10:02:00,82.0,-99.9,29.95,SSE,159,15.0,17.0,-999,-99.99,,,-99.99,,2013-06-15 15:02:00,
2013-06-15 10:12:00,82.0,-99.9,29.95,SSE,162,16.0,19.0,-999,-99.99,,,-99.99,,2013-06-15 15:12:00,
2013-06-15 10:22:00,83.0,-99.9,29.94,SSE,158,17.0,19.0,-999,-99.99,,,-99.99,,2013-06-15 15:22:00,
2013-06-15 10:33:00,83.0,-99.9,29.94,SSE,152,18.0,20.0,-999,-99.99,,,-99.99,,2013-06-15 15:33:00,
2013-06-15 10:43:00,82.0,-99.9,29.95,SSE,150,17.0,19.0,-999,-99.99,,,-99.99,,2013-06-15 15:43:00,
2013-06-15 10:53:00,82.0,-99.9,29.95,SSE,151,17.0,18.0,-999,-99.99,,,-99.99,,2013-06-15 15:53:00,
2013-06-15 11:02:00,83.0,-99.9,29.95,SSE,149,15.0,17.0,-999,-99.99,,,-99.99,,2013-06-15 16:02:00,
2013-06-15 11:12:00,83.0,-99.9,29.95,SSE,158,16.0,17.0,-999,-99.99,,,-99.99,,2013-06-15 16:12:00,
2013-06-15 11:22:00,83.0,-99.9,29.95,SSE,158,16.0,17.0,-999,-99.99,,,-99.99,,2013-06-15 16:22:00,
2013-06-15 11:33:00,83.0,-99.9,29.95,SE,145,13.0,16.0,-999,-99.99,,,-99.99,,2013-06-15 16:33:00,
2013-06-15 11:43:00,83.0,-99.9,29.95,SSE,148,13.0,16.0,-999,-99.99,,,-99.99,,2013-06-15 16:43:00,
2013-06-15 11:54:00,82.0,-99.9,29.95,SSE,148,14.0,15.0,-999,-99.99,,,-99.99,,2013-06-15 16:54:00,
2013-06-15 12:02:00,82.0,-99.9,29.95,SSE,147,14.0,17.0,-999,-99.99,,,-99.99,,2013-06-15 17:02:00,
2013-06-15 12:12:00,83.0,-99.9,29.95,SE,145,14.0,17.0,-999,-99.99,,,-99.99,,2013-06-15 17:12:00,
2013-06-15 12:22:00,83.0,-99.9,29.95,SE,138,14.0,15.0,-999,-99.99,,,-99.99,,2013-06-15 17:22:00,
2013-06-15 12:32:00,83.0,-99.9,29.95,SSE,149,14.0,15.0,-999,-99.99,,,-99.99,,2013-06-15 17:32:00,
2013-06-15 12:43:00,83.0,-99.9,29.95,SE,146,13.0,16.0,-999,-99.99,,,-99.99,,2013-06-15 17:43:00,
2013-06-15 12:52:00,83.0,-99.9,29.95,SE,141,13.0,15.0,-999,-99.99,,,-99.99,,2013-06-15 17:52:00,
2013-06-15 13:02:00,83.0,-99.9,29.94,SE,142,15.0,16.0,-999,-99.99,,,-99.99,,2013-06-15 18:02:00,
2013-06-15 13:12:00,83.0,-99.9,29.94,SE,140,13.0,15.0,-999,-99.99,,,-99.99,,2013-06-15 18:12:00,
2013-06-15 13:22:00,83.0,-99.9,29.94,SE,130,15.0,16.0,-999,-99.99,,,-99.99,,2013-06-15 18:22:00,
2013-06-15 13:33:00,83.0,-99.9,29.94,SE,124,14.0,16.0,-999,-99.99,,,-99.99,,2013-06-15 18:33:00,
2013-06-15 13:43:00,83.0,-99.9,29.94,SE,127,15.0,16.0,-999,-99.99,,,-99.99,,2013-06-15 18:43:00,
2013-06-15 13:53:00,83.0,-99.9,29.94,SE,127,14.0,16.0,-999,-99.99,,,-99.99,,2013-06-15 18:53:00,
2013-06-15 14:02:00,83.0,-99.9,29.93,SE,125,16.0,17.0,-999,-99.99,,,-99.99,,2013-06-15 19:02:00,
2013-06-15 14:12:00,83.0,-99.9,29.93,SE,124,16.0,17.0,-999,-99.99,,,-99.99,,2013-06-15 19:12:00,
2013-06-15 14:22:00,83.0,-99.9,29.93,ESE,123,15.0,17.0,-999,-99.99,,,-99.99,,2013-06-15 19:22:00,
2013-06-15 14:33:00,83.0,-99.9,29.93,SE,124,15.0,17.0,-999,-99.99,,,-99.99,,2013-06-15 19:33:00,
2013-06-15 14:43:00,83.0,-99.9,29.92,SE,127,16.0,18.0,-999,-99.99,,,-99.99,,2013-06-15 19:43:00,
2013-06-15 14:53:00,83.0,-99.9,29.92,SE,130,15.0,16.0,-999,-99.99,,,-99.99,,2013-06-15 19:53:00,
2013-06-15 15:02:00,83.0,-99.9,29.92,SE,125,15.0,16.0,-999,-99.99,,,-99.99,,2013-06-15 20:02:00,
2013-06-15 15:12:00,83.0,-99.9,29.91,ESE,122,15.0,17.0,-999,-99.99,,,-99.99,,2013-06-15 20:12:00,
2013-06-15 15:22:00,83.0,-99.9,29.91,ESE,118,16.0,17.0,-999,-99.99,,,-99.99,,2013-06-15 20:22:00,
2013-06-15 15:34:00,83.0,-99.9,29.91,ESE,117,14.0,17.0,-999,-99.99,,,-99.99,,2013-06-15 20:34:00,
2013-06-15 15:43:00,83.0,-99.9,29.91,ESE,113,15.0,17.0,-999,-99.99,,,-99.99,,2013-06-15 20:43:00,
2013-06-15 15:53:00,83.0,-99.9,29.91,ESE,112,15.0,19.0,-999,-99.99,,,-99.99,,2013-06-15 20:53:00,
2013-06-15 16:02:00,83.0,-99.9,29.91,ESE,110,17.0,19.0,-999,-99.99,,,-99.99,,2013-06-15 21:02:00,
2013-06-15 16:12:00,83.0,-99.9,29.90,ESE,109,17.0,19.0,-999,-99.99,,,-99.99,,2013-06-15 21:12:00,
2013-06-15 16:22:00,83.0,-99.9,29.90,ESE,109,18.0,20.0,-999,-99.99,,,-99.99,,2013-06-15 21:22:00,
2013-06-15 16:34:00,83.0,-99.9,29.89,ESE,107,17.0,20.0,-999,-99.99,,,-99.99,,2013-06-15 21:34:00,
2013-06-15 16:42:00,83.0,-99.9,29.89,ESE,108,19.0,20.0,-999,-99.99,,,-99.99,,2013-06-15 21:42:00,
2013-06-15 16:53:00,83.0,-99.9,29.89,ESE,112,17.0,21.0,-999,-99.99,,,-99.99,,2013-06-15 21:53:00,
2013-06-15 17:02:00,83.0,-99.9,29.88,ESE,119,19.0,21.0,-999,-99.99,,,-99.99,,2013-06-15 22:02:00,
2013-06-15 17:11:00,83.0,-99.9,29.88,ESE,119,19.0,21.0,-999,-99.99,,,-99.99,,2013-06-15 22:11:00,
2013-06-15 17:22:00,83.0,-99.9,29.88,ESE,119,19.0,21.0,-999,-99.99,,,-99.99,,2013-06-15 22:22:00,
2013-06-15 17:33:00,83.0,-99.9,29.88,ESE,119,19.0,21.0,-999,-99.99,,,-99.99,,2013-06-15 22:33:00,
2013-06-15 17:53:00,83.0,-99.9,29.88,ESE,123,18.0,21.0,-999,-99.99,,,-99.99,,2013-06-15 22:53:00,
2013-06-15 18:02:00,83.0,-99.9,29.88,SE,131,19.0,21.0,-999,-99.99,,,-99.99,,2013-06-15 23:02:00,
2013-06-15 18:12:00,83.0,-99.9,29.88,SE,127,19.0,21.0,-999,-99.99,,,-99.99,,2013-06-15 23:12:00,
2013-06-15 18:22:00,83.0,-99.9,29.87,SE,128,20.0,23.0,-999,-99.99,,,-99.99,,2013-06-15 23:22:00,
2013-06-15 18:33:00,83.0,-99.9,29.87,SE,129,19.0,22.0,-999,-99.99,,,-99.99,,2013-06-15 23:33:00,
2013-06-15 18:43:00,83.0,-99.9,29.87,SE,126,19.0,21.0,-999,-99.99,,,-99.99,,2013-06-15 23:43:00,
2013-06-15 18:53:00,83.0,-99.9,29.87,SE,130,19.0,21.0,-999,-99.99,,,-99.99,,2013-06-15 23:53:00,
2013-06-15 19:02:00,83.0,-99.9,29.87,SE,128,19.0,21.0,-999,-99.99,,,-99.99,,2013-06-16 00:02:00,
2013-06-15 19:12:00,83.0,-99.9,29.87,SE,128,19.0,21.0,-999,-99.99,,,-99.99,,2013-06-16 00:12:00,
2013-06-15 19:22:00,83.0,-99.9,29.87,SE,133,19.0,21.0,-999,-99.99,,,-99.99,,2013-06-16 00:22:00,
2013-06-15 19:34:00,83.0,-99.9,29.88,SE,127,19.0,21.0,-999,-99.99,,,-99.99,,2013-06-16 00:34:00,
2013-06-15 19:43:00,83.0,-99.9,29.87,SE,127,19.0,23.0,-999,-99.99,,,-99.99,,2013-06-16 00:43:00,
2013-06-15 19:52:00,83.0,-99.9,29.87,SE,128,17.0,21.0,-999,-99.99,,,-99.99,,2013-06-16 00:52:00,
2013-06-15 20:02:00,83.0,-99.9,29.87,SE,131,21.0,23.0,-999,-99.99,,,-99.99,,2013-06-16 01:02:00,
2013-06-15 20:12:00,83.0,-99.9,29.88,ESE,122,21.0,23.0,-999,-99.99,,,-99.99,,2013-06-16 01:12:00,
2013-06-15 20:22:00,83.0,-99.9,29.88,SE,128,20.0,23.0,-999,-99.99,,,-99.99,,2013-06-16 01:22:00,
2013-06-15 20:33:00,83.0,-99.9,29.88,SE,129,21.0,24.0,-999,-99.99,,,-99.99,,2013-06-16 01:33:00,
2013-06-15 20:43:00,83.0,-99.9,29.88,SE,131,20.0,23.0,-999,-99.99,,,-99.99,,2013-06-16 01:43:00,
2013-06-15 20:53:00,83.0,-99.9,29.88,SE,128,21.0,24.0,-999,-99.99,,,-99.99,,2013-06-16 01:53:00,
2013-06-15 21:02:00,83.0,-99.9,29.88,SE,126,20.0,24.0,-999,-99.99,,,-99.99,,2013-06-16 02:02:00,
2013-06-15 21:12:00,83.0,-99.9,29.88,SE,127,20.0,23.0,-999,-99.99,,,-99.99,,2013-06-16 02:12:00,
2013-06-15 21:22:00,83.0,-99.9,29.88,SE,127,21.0,24.0,-999,-99.99,,,-99.99,,2013-06-16 02:22:00,
2013-06-15 21:33:00,83.0,-99.9,29.88,SE,129,22.0,24.0,-999,-99.99,,,-99.99,,2013-06-16 02:33:00,
2013-06-15 21:43:00,83.0,-99.9,29.88,SE,130,21.0,25.0,-999,-99.99,,,-99.99,,2013-06-16 02:43:00,
2013-06-15 21:53:00,83.0,-99.9,29.88,SE,133,22.0,25.0,-999,-99.99,,,-99.99,,2013-06-16 02:53:00,
2013-06-15 22:02:00,83.0,-99.9,29.89,SE,135,21.0,24.0,-999,-99.99,,,-99.99,,2013-06-16 03:02:00,
2013-06-15 22:12:00,83.0,-99.9,29.89,SE,137,20.0,24.0,-999,-99.99,,,-99.99,,2013-06-16 03:12:00,
2013-06-15 22:22:00,83.0,-99.9,29.90,SE,141,21.0,24.0,-999,-99.99,,,-99.99,,2013-06-16 03:22:00,
2013-06-15 22:34:00,83.0,-99.9,29.91,SE,139,19.0,23.0,-999,-99.99,,,-99.99,,2013-06-16 03:34:00,
2013-06-15 22:43:00,83.0,-99.9,29.91,SE,138,20.0,23.0,-999,-99.99,,,-99.99,,2013-06-16 03:43:00,
2013-06-15 22:53:00,83.0,-99.9,29.91,SE,142,21.0,23.0,-999,-99.99,,,-99.99,,2013-06-16 03:53:00,
2013-06-15 23:02:00,83.0,-99.9,29.92,SE,142,21.0,23.0,-999,-99.99,,,-99.99,,2013-06-16 04:02:00,
2013-06-15 23:12:00,83.0,-99.9,29.92,SE,139,19.0,23.0,-999,-99.99,,,-99.99,,2013-06-16 04:12:00,
2013-06-15 23:23:00,83.0,-99.9,29.92,SE,143,20.0,23.0,-999,-99.99,,,-99.99,,2013-06-16 04:23:00,
2013-06-15 23:34:00,83.0,-99.9,29.92,SE,140,18.0,23.0,-999,-99.99,,,-99.99,,2013-06-16 04:34:00,
2013-06-15 23:43:00,83.0,-99.9,29.92,SE,144,20.0,22.0,-999,-99.99,,,-99.99,,2013-06-16 04:43:00,
2013-06-15 23:53:00,83.0,-99.9,29.93,SE,138,20.0,23.0,-999,-99.99,,,-99.99,,2013-06-16 04:53:00,